Last 24 Hours

Canyon Lodge - 8,343ft

5 Minute Data | America/Los_Angeles
as of 9/6/26 12:52 PM PDT
Date & Time Temp (°F) RH (%) Dew Pt (°F) Wet Bulb (°F) Wind Dir (°) Wind Spd (mph) Wind Gust (mph) Wind Gst Dir (°)
9/6/26 - 1250 56.8 43 34.8 46.3 S | 188 12.6 25.2 SSE | 165
9/6/26 - 1245 56.5 43 34.4 46.0 SSW | 200 12.1 30.8 SSW | 203
9/6/26 - 1240 56.8 43 34.3 46.1 SSW | 199 11.1 25.9 SSW | 202
9/6/26 - 1235 56.5 42 33.6 45.7 SSW | 202 10.0 20.6 SSW | 196
9/6/26 - 1230 57.4 41 34.0 46.2 S | 189 10.8 26.0 SSE | 151
9/6/26 - 1225 56.9 41 33.6 45.9 SSW | 210 10.4 29.1 WSW | 256
9/6/26 - 1220 56.8 41 33.6 45.8 SSW | 202 10.6 24.1 S | 184
9/6/26 - 1215 57.6 42 34.5 46.5 SSW | 194 10.4 26.3 SSW | 198
9/6/26 - 1210 57.5 42 34.8 46.6 SW | 236 7.3 17.9 WSW | 241
9/6/26 - 1205 57.6 43 35.4 46.8 SW | 224 7.6 22.0 WSW | 250
9/6/26 - 1200 56.8 43 34.4 46.1 WSW | 242 8.2 21.3 WSW | 243
9/6/26 - 1155 57.0 42 33.9 46.0 SW | 234 8.7 23.4 SW | 220
9/6/26 - 1150 57.7 42 34.7 46.6 SSW | 210 5.4 17.3 SSW | 204
9/6/26 - 1145 57.8 42 34.9 46.8 WSW | 243 6.3 18.5 WSW | 246
9/6/26 - 1140 56.8 42 34.1 46.0 WSW | 241 9.3 19.7 WSW | 256
9/6/26 - 1135 57.2 42 34.2 46.3 SW | 226 7.9 17.0 WSW | 255
9/6/26 - 1130 57.7 42 34.7 46.6 SW | 216 7.1 14.8 SSE | 148
9/6/26 - 1125 57.4 42 34.5 46.4 WSW | 238 7.9 18.8 SSW | 201
9/6/26 - 1120 57.1 42 34.4 46.3 SW | 230 10.5 36.6 SSE | 164
9/6/26 - 1115 57.5 43 35.0 46.6 SW | 219 8.7 21.6 SW | 231
9/6/26 - 1110 57.3 43 34.9 46.6 SW | 220 7.4 23.5 SE | 135
9/6/26 - 1105 56.9 43 34.7 46.3 WSW | 238 9.0 22.8 SSW | 203
9/6/26 - 1100 58.1 43 35.9 47.3 SSW | 193 8.3 23.5 SSE | 168
9/6/26 - 1055 57.6 43 35.5 46.9 SSW | 206 9.7 21.9 SSW | 198
9/6/26 - 1050 57.5 43 35.3 46.8 SW | 215 6.7 19.0 S | 190
9/6/26 - 1045 57.1 43 34.7 46.4 SSW | 208 7.2 18.3 S | 188
9/6/26 - 1040 56.6 42 34.1 46.0 SSW | 196 9.9 18.2 S | 173
9/6/26 - 1035 56.9 43 34.5 46.2 SSW | 206 8.3 21.4 S | 190
9/6/26 - 1030 56.3 43 34.2 45.8 SSW | 200 8.0 17.9 WSW | 251
9/6/26 - 1025 56.7 43 34.6 46.1 SW | 215 7.4 20.4 S | 189
9/6/26 - 1020 55.8 44 34.1 45.6 SW | 225 6.8 16.8 SSW | 193
9/6/26 - 1015 56.1 44 34.3 45.8 SSW | 207 7.7 15.6 S | 181
9/6/26 - 1010 56.3 44 34.7 46.0 SSW | 210 8.0 21.6 W | 264
9/6/26 - 1005 55.9 44 34.2 45.7 SW | 220 6.4 16.2 WSW | 238
9/6/26 - 1000 55.6 45 34.4 45.6 SW | 220 6.1 14.7 S | 179
9/6/26 - 0955 54.9 44 33.7 45.0 SSW | 212 6.4 18.8 SW | 226
9/6/26 - 0950 55.2 44 33.7 45.2 SW | 222 6.3 15.8 W | 269
9/6/26 - 0945 55.6 43 33.6 45.3 SSW | 197 6.8 15.8 SSW | 192
9/6/26 - 0940 55.5 43 33.5 45.2 SW | 233 7.2 15.5 S | 181
9/6/26 - 0935 54.9 43 32.9 44.7 SSW | 209 7.5 19.5 SSE | 167
9/6/26 - 0930 54.6 43 32.8 44.6 SW | 231 6.9 18.4 SSW | 207
9/6/26 - 0925 54.5 43 32.7 44.5 WSW | 237 6.9 16.4 SW | 234
9/6/26 - 0920 54.3 43 32.5 44.3 SW | 228 8.5 15.8 WSW | 247
9/6/26 - 0915 54.6 44 32.9 44.6 SSW | 212 6.9 15.3 SSE | 151
9/6/26 - 0910 53.7 43 32.0 43.8 SW | 227 7.2 15.2 SW | 226
9/6/26 - 0905 53.8 43 32.1 44.0 SW | 220 6.2 17.4 SW | 224
9/6/26 - 0900 53.8 44 32.3 44.0 SW | 220 7.8 19.6 WSW | 253
9/6/26 - 0855 53.4 44 31.9 43.6 WSW | 239 7.0 20.2 W | 260
9/6/26 - 0850 53.0 44 31.7 43.4 SW | 235 8.6 20.5 WSW | 238
9/6/26 - 0845 53.1 44 31.7 43.5 SW | 222 5.7 15.8 W | 265
9/6/26 - 0840 53.0 44 31.7 43.4 WSW | 244 6.6 14.6 WSW | 251
9/6/26 - 0835 52.4 44 31.0 42.9 WSW | 243 7.3 24.4 SSW | 196
9/6/26 - 0830 52.9 44 31.5 43.3 SW | 224 5.3 11.7 SSW | 199
9/6/26 - 0825 52.6 44 31.6 43.2 SW | 226 8.8 21.0 S | 178
9/6/26 - 0820 53.0 44 31.9 43.5 SW | 229 7.8 17.3 WSW | 239
9/6/26 - 0815 53.0 45 32.3 43.6 SW | 228 6.7 16.7 WSW | 246
9/6/26 - 0810 52.4 45 31.7 43.2 SW | 233 8.3 19.4 S | 182
9/6/26 - 0805 52.0 46 31.8 43.0 SW | 230 6.9 18.2 W | 260
9/6/26 - 0800 52.1 46 32.1 43.1 SW | 217 5.8 15.4 SW | 235
9/6/26 - 0755 51.7 46 31.5 42.8 SW | 218 6.8 14.9 S | 190
9/6/26 - 0750 52.0 45 31.5 42.8 SW | 227 7.2 17.6 W | 262
9/6/26 - 0745 51.8 46 31.6 42.8 SW | 234 7.9 18.8 WNW | 285
9/6/26 - 0740 51.6 47 32.1 42.9 WSW | 237 8.1 21.1 SSW | 204
9/6/26 - 0735 51.6 47 31.8 42.8 SW | 226 5.9 18.4 WSW | 250
9/6/26 - 0730 51.5 47 31.8 42.7 SW | 235 8.2 24.2 W | 277
9/6/26 - 0725 51.1 47 31.7 42.5 SW | 228 6.0 12.0 S | 178
9/6/26 - 0720 51.4 47 31.7 42.6 SW | 234 7.6 18.1 WSW | 253
9/6/26 - 0715 51.1 47 31.5 42.5 SW | 233 7.8 16.2 S | 172
9/6/26 - 0710 51.1 47 31.7 42.5 WSW | 246 8.1 18.6 WSW | 254
9/6/26 - 0705 51.1 47 31.5 42.5 WSW | 239 7.9 20.2 WSW | 244
9/6/26 - 0700 50.9 47 31.3 42.3 SW | 234 8.1 19.3 W | 266
9/6/26 - 0655 50.7 46 30.9 42.0 WSW | 240 6.6 17.6 SW | 231
9/6/26 - 0650 50.9 46 31.0 42.2 WSW | 246 7.1 20.4 SW | 224
9/6/26 - 0645 50.8 46 30.6 42.0 SW | 225 7.5 15.6 WSW | 256
9/6/26 - 0640 50.5 46 30.3 41.8 SW | 224 6.0 15.8 WNW | 282
9/6/26 - 0635 50.8 45 30.2 41.8 SW | 226 6.5 15.7 SW | 226
9/6/26 - 0630 50.9 44 29.6 41.7 SW | 217 6.4 15.8 S | 178
9/6/26 - 0625 51.1 44 29.8 41.9 SW | 222 7.9 19.2 SW | 216
9/6/26 - 0620 51.0 44 29.6 41.7 SW | 227 5.7 14.0 W | 268
9/6/26 - 0615 51.2 44 30.1 42.0 WSW | 254 7.6 18.0 W | 271
9/6/26 - 0610 51.1 44 30.0 41.9 SW | 219 6.6 14.7 WSW | 243
9/6/26 - 0605 50.7 44 29.6 41.6 SW | 214 6.9 13.0 W | 259
9/6/26 - 0600 51.4 45 30.6 42.2 SW | 227 7.0 18.5 W | 270
9/6/26 - 0555 51.5 45 30.6 42.3 SW | 233 6.4 14.5 WSW | 250
9/6/26 - 0550 51.5 44 30.4 42.2 SW | 225 7.7 15.7 SW | 214
9/6/26 - 0545 51.4 44 30.1 42.1 SW | 233 5.5 13.1 W | 262
9/6/26 - 0540 51.6 44 30.4 42.3 SW | 236 6.7 17.4 W | 275
9/6/26 - 0535 51.7 44 30.4 42.3 SW | 233 7.1 20.0 SW | 227
9/6/26 - 0530 52.1 43 30.5 42.5 SSW | 210 8.2 17.5 SSW | 200
9/6/26 - 0525 51.8 43 30.2 42.4 SW | 234 7.9 15.1 WSW | 249
9/6/26 - 0520 52.0 43 30.4 42.4 SSW | 198 8.6 19.5 S | 185
9/6/26 - 0515 51.7 44 30.4 42.4 WSW | 237 9.1 20.4 WSW | 254
9/6/26 - 0510 51.6 43 29.8 42.1 SW | 225 7.2 15.2 S | 181
9/6/26 - 0505 51.0 43 29.2 41.6 SSW | 210 5.3 12.4 SSW | 195
9/6/26 - 0500 51.0 43 29.3 41.6 SW | 216 5.0 13.7 WSW | 242
9/6/26 - 0455 51.5 43 29.8 42.0 SW | 222 7.3 19.4 W | 267
9/6/26 - 0450 51.2 43 29.7 41.9 SW | 236 7.4 14.6 W | 270
9/6/26 - 0445 51.2 44 30.0 42.0 SW | 223 6.4 12.6 SW | 222
9/6/26 - 0440 51.0 44 29.9 41.9 SW | 226 5.9 14.2 WSW | 240
9/6/26 - 0435 50.7 45 30.0 41.7 SW | 233 6.5 15.0 SW | 234
9/6/26 - 0430 50.2 45 29.5 41.3 SSW | 209 4.3 15.4 SSW | 198
9/6/26 - 0425 50.8 45 30.4 41.9 SW | 214 5.7 14.6 SSW | 198
9/6/26 - 0420 50.9 46 30.6 42.0 SW | 224 5.2 12.7 WSW | 257
9/6/26 - 0415 50.9 45 30.2 41.9 SW | 214 6.0 16.0 SSW | 204
9/6/26 - 0410 50.4 44 29.5 41.4 SW | 226 6.6 16.2 S | 182
9/6/26 - 0405 50.1 45 29.6 41.3 SW | 216 4.8 12.9 WSW | 250
9/6/26 - 0400 50.3 46 30.2 41.6 SSW | 202 6.9 14.9 SSE | 164
9/6/26 - 0355 50.6 45 30.0 41.7 SW | 236 7.3 16.1 WSW | 240
9/6/26 - 0350 50.5 45 29.9 41.6 SSW | 213 5.5 15.3 SW | 230
9/6/26 - 0345 50.7 44 29.7 41.6 SW | 219 5.8 18.3 SW | 232
9/6/26 - 0340 50.5 43 29.0 41.3 SSW | 206 6.9 13.1 S | 184
9/6/26 - 0335 51.0 44 29.8 41.8 SW | 231 7.0 16.1 WSW | 251
9/6/26 - 0330 50.8 45 30.2 41.8 SW | 214 7.7 16.3 WSW | 244
9/6/26 - 0325 51.0 44 30.0 41.9 SW | 227 7.4 18.4 WSW | 243
9/6/26 - 0320 50.8 44 29.4 41.6 SW | 226 7.0 20.4 S | 182
9/6/26 - 0315 50.7 43 28.8 41.3 SW | 222 7.0 20.2 WSW | 250
9/6/26 - 0310 51.4 43 29.6 41.9 SW | 234 8.9 18.8 SW | 223
9/6/26 - 0305 50.7 43 28.9 41.3 SW | 222 6.5 15.1 SSW | 195
9/6/26 - 0300 50.4 43 28.7 41.1 SW | 235 7.6 18.5 W | 273
9/6/26 - 0255 50.2 43 28.5 41.0 SW | 236 6.9 16.5 W | 261
9/6/26 - 0250 50.2 43 28.7 41.0 SW | 234 6.8 16.3 W | 267
9/6/26 - 0245 49.8 43 28.2 40.7 WSW | 242 7.5 15.6 W | 265
9/6/26 - 0240 49.9 43 28.5 40.8 SW | 235 9.0 17.1 W | 271
9/6/26 - 0235 49.6 43 28.0 40.5 SW | 224 6.3 17.9 SW | 218
9/6/26 - 0230 49.7 43 28.4 40.7 WSW | 247 8.4 17.6 WSW | 257
9/6/26 - 0225 49.4 44 28.3 40.5 SW | 229 7.8 19.4 WSW | 255
9/6/26 - 0220 49.4 44 28.2 40.5 SW | 229 5.1 15.9 SW | 227
9/6/26 - 0215 49.4 44 28.2 40.5 SW | 232 6.7 15.2 SW | 230
9/6/26 - 0210 49.4 44 28.2 40.5 SW | 235 7.6 16.8 WSW | 237
9/6/26 - 0205 49.4 43 28.1 40.4 SW | 236 8.5 20.6 WSW | 243
9/6/26 - 0200 49.6 43 28.1 40.5 SW | 229 8.2 16.3 W | 267
9/6/26 - 0155 49.7 44 28.4 40.7 WSW | 250 8.9 17.3 WSW | 245
9/6/26 - 0150 49.1 43 27.7 40.2 WSW | 237 7.8 16.6 SSW | 212
9/6/26 - 0145 48.9 43 27.3 39.9 WSW | 244 9.4 22.3 W | 278
9/6/26 - 0140 49.0 42 27.0 39.9 SW | 231 8.4 22.7 WSW | 244
9/6/26 - 0135 49.0 42 26.9 39.9 SW | 229 7.5 23.2 WNW | 284
9/6/26 - 0130 49.0 42 27.0 39.9 WSW | 241 8.7 23.5 WSW | 253
9/6/26 - 0125 48.6 42 26.9 39.7 SW | 231 6.6 21.2 WSW | 249
9/6/26 - 0120 48.7 43 27.1 39.7 SW | 232 7.0 16.7 W | 268
9/6/26 - 0115 48.7 42 26.8 39.7 WSW | 237 8.5 16.5 WSW | 255
9/6/26 - 0110 48.8 42 26.9 39.8 SW | 222 7.1 18.0 SW | 228
9/6/26 - 0105 48.8 43 27.3 39.9 SW | 217 6.4 18.4 W | 259
9/6/26 - 0100 49.0 43 27.7 40.1 WSW | 241 7.4 17.5 WSW | 246
9/6/26 - 0055 48.9 43 27.5 40.0 WSW | 238 9.1 18.0 W | 269
9/6/26 - 0050 48.8 43 27.1 39.8 SW | 233 7.8 16.1 S | 191
9/6/26 - 0045 49.0 42 27.1 39.9 SW | 226 7.2 19.4 WSW | 255
9/6/26 - 0040 48.9 42 26.7 39.7 SW | 227 5.7 13.9 SW | 231
9/6/26 - 0035 48.8 41 26.2 39.5 WSW | 240 7.3 18.8 WSW | 255
9/6/26 - 0030 48.9 41 26.3 39.6 SW | 230 8.9 22.0 WSW | 249
9/6/26 - 0025 48.9 41 26.4 39.6 SW | 229 9.8 18.9 SW | 236
9/6/26 - 0020 49.0 42 26.7 39.8 SW | 227 7.1 19.0 WSW | 258
9/6/26 - 0015 49.0 42 26.7 39.8 SW | 217 6.4 15.2 SW | 236
9/6/26 - 0010 49.0 42 26.8 39.8 SW | 221 8.3 15.3 SSW | 195
9/6/26 - 0005 49.1 43 27.4 40.1 SW | 236 7.8 18.0 SSW | 195
9/6/26 - 0000 49.4 42 27.3 40.2 SW | 229 8.2 21.3 W | 262
9/5/26 - 2355 49.5 41 27.0 40.2 SW | 232 7.0 15.2 WSW | 255
9/5/26 - 2350 49.7 41 27.2 40.3 SW | 232 8.1 19.7 SW | 233
9/5/26 - 2345 49.7 42 27.4 40.4 SW | 233 8.3 21.6 SW | 231
9/5/26 - 2340 49.7 41 27.1 40.3 SW | 234 9.5 22.9 W | 267
9/5/26 - 2335 49.2 42 27.0 40.0 SW | 224 7.1 17.9 SSW | 209
9/5/26 - 2330 49.5 42 27.4 40.3 SW | 235 9.2 18.5 WSW | 248
9/5/26 - 2325 49.0 42 26.8 39.8 SW | 229 6.5 17.8 SW | 231
9/5/26 - 2320 49.5 42 27.3 40.2 WSW | 237 6.9 15.4 WSW | 239
9/5/26 - 2315 49.2 42 27.0 40.0 SW | 235 9.3 19.6 SW | 227
9/5/26 - 2310 48.8 41 26.4 39.6 SW | 234 7.0 19.8 SSW | 203
9/5/26 - 2305 49.0 41 26.5 39.8 WSW | 243 8.7 19.2 SW | 227
9/5/26 - 2300 49.2 42 26.9 39.9 WSW | 242 10.7 26.0 WSW | 241
9/5/26 - 2255 49.2 41 26.9 40.0 SW | 233 9.3 19.8 WSW | 240
9/5/26 - 2250 49.3 41 26.7 39.9 WSW | 242 9.5 20.4 WSW | 251
9/5/26 - 2245 49.2 41 26.6 39.9 WSW | 245 10.3 25.6 WSW | 238
9/5/26 - 2240 49.2 40 26.1 39.7 SW | 233 8.0 19.8 WSW | 245
9/5/26 - 2235 49.2 40 25.8 39.6 WSW | 238 8.4 26.7 WSW | 254
9/5/26 - 2230 49.1 39 25.5 39.5 WSW | 244 10.4 23.1 WSW | 241
9/5/26 - 2225 49.2 40 25.9 39.7 WSW | 244 10.2 24.6 SW | 225
9/5/26 - 2220 49.2 40 26.1 39.7 WSW | 238 8.9 21.4 WSW | 256
9/5/26 - 2215 49.1 41 26.2 39.7 SW | 236 8.8 24.4 WSW | 252
9/5/26 - 2210 49.1 40 26.0 39.6 SW | 233 8.1 21.1 SW | 236
9/5/26 - 2205 49.1 40 25.9 39.6 SW | 230 7.9 22.0 NW | 305
9/5/26 - 2200 49.1 40 26.0 39.6 SW | 227 7.1 19.8 S | 189
9/5/26 - 2155 49.3 41 26.3 39.8 SW | 233 8.4 22.1 WSW | 238
9/5/26 - 2150 49.0 40 26.0 39.6 SW | 228 5.6 20.1 WSW | 258
9/5/26 - 2145 49.0 40 25.9 39.6 SW | 223 7.6 21.2 WNW | 286
9/5/26 - 2140 49.0 40 26.0 39.6 SW | 234 7.2 17.3 SW | 221
9/5/26 - 2135 48.9 40 25.8 39.5 SW | 226 5.9 15.3 WSW | 238
9/5/26 - 2130 49.2 41 26.3 39.8 SW | 233 7.9 20.9 WSW | 246
9/5/26 - 2125 49.1 40 26.1 39.7 WSW | 241 8.0 17.5 WSW | 243
9/5/26 - 2120 49.0 41 26.1 39.6 WSW | 242 9.6 18.2 WSW | 246
9/5/26 - 2115 48.9 41 26.0 39.5 WSW | 239 9.2 19.0 W | 276
9/5/26 - 2110 48.7 41 25.8 39.3 WSW | 241 8.3 17.4 WSW | 250
9/5/26 - 2105 48.9 41 26.1 39.6 WSW | 240 8.2 18.7 W | 262
9/5/26 - 2100 48.4 40 25.1 39.0 SW | 224 6.9 13.5 SW | 226
9/5/26 - 2055 48.4 40 25.1 39.0 SW | 225 5.0 11.0 SSW | 194
9/5/26 - 2050 48.3 39 24.8 38.9 SSW | 194 5.9 12.2 S | 182
9/5/26 - 2045 48.4 39 24.8 38.9 SSW | 211 5.6 12.5 S | 187
9/5/26 - 2040 48.5 39 25.0 39.0 SW | 217 5.7 13.0 SW | 228
9/5/26 - 2035 48.7 40 25.2 39.2 SW | 225 6.1 17.2 WSW | 245
9/5/26 - 2030 48.8 39 25.2 39.2 SW | 226 5.4 17.9 WSW | 241
9/5/26 - 2025 48.7 40 25.2 39.2 WSW | 238 6.0 15.7 SW | 235
9/5/26 - 2020 48.8 39 25.1 39.2 SW | 217 5.4 15.1 WNW | 299
9/5/26 - 2015 49.1 39 25.5 39.5 WSW | 237 7.4 19.9 WSW | 243
9/5/26 - 2010 49.4 39 25.7 39.7 SW | 230 7.9 18.5 SW | 234
9/5/26 - 2005 49.2 39 25.6 39.6 SW | 222 7.6 18.8 W | 261
9/5/26 - 2000 49.5 40 26.1 39.9 SW | 235 7.6 17.4 WSW | 250
9/5/26 - 1955 49.4 40 26.0 39.8 SW | 230 4.7 16.3 WSW | 257
9/5/26 - 1950 49.5 40 26.4 40.0 SW | 223 6.0 17.7 SW | 222
9/5/26 - 1945 49.7 40 26.4 40.1 SW | 215 6.4 12.9 SSW | 192
9/5/26 - 1940 49.8 40 26.7 40.2 SW | 218 5.8 21.1 WSW | 249
9/5/26 - 1935 50.2 41 27.5 40.6 SW | 220 5.9 14.4 W | 260
9/5/26 - 1930 50.2 41 27.1 40.5 SSW | 213 7.6 16.6 S | 184
9/5/26 - 1925 50.3 40 26.8 40.5 SW | 233 8.1 20.7 W | 262
9/5/26 - 1920 50.7 39 26.8 40.7 SW | 230 8.9 17.7 WSW | 239
9/5/26 - 1915 50.8 39 26.5 40.6 SW | 222 6.5 15.3 SW | 216
9/5/26 - 1910 50.7 38 25.9 40.4 SW | 224 6.2 17.2 W | 275
9/5/26 - 1905 51.0 38 26.4 40.7 SW | 229 7.1 16.4 WSW | 255
9/5/26 - 1900 51.0 38 26.4 40.7 WSW | 237 7.0 16.5 WSW | 249
9/5/26 - 1855 51.1 38 26.5 40.8 SW | 231 8.8 20.2 SW | 217
9/5/26 - 1850 51.5 39 27.2 41.2 WSW | 242 8.8 21.8 WSW | 247
9/5/26 - 1845 51.4 39 27.6 41.2 WSW | 241 9.3 19.2 WSW | 240
9/5/26 - 1840 51.4 38 26.8 41.0 SSW | 210 5.2 14.1 S | 178
9/5/26 - 1835 51.6 39 27.5 41.3 SW | 231 6.6 14.4 WSW | 256
9/5/26 - 1830 51.6 40 27.9 41.5 SW | 219 7.2 18.2 SW | 218
9/5/26 - 1825 51.5 38 26.6 41.0 SSW | 206 8.4 16.1 W | 267
9/5/26 - 1820 51.7 38 26.9 41.2 SW | 220 9.4 18.9 WSW | 242
9/5/26 - 1815 51.8 38 27.1 41.3 SW | 227 5.4 18.1 WSW | 246
9/5/26 - 1810 52.0 38 27.2 41.4 SW | 218 7.9 17.4 WSW | 244
9/5/26 - 1805 52.3 39 27.8 41.8 SW | 228 9.3 18.5 SW | 217
9/5/26 - 1800 52.2 39 28.0 41.8 SW | 222 6.3 20.0 WSW | 253
9/5/26 - 1755 52.3 39 27.9 41.8 SSW | 206 6.5 14.1 SSW | 204
9/5/26 - 1750 52.4 39 28.1 41.9 SW | 226 7.4 24.0 WSW | 256
9/5/26 - 1745 52.6 39 28.2 42.1 WSW | 238 7.3 20.4 WSW | 246
9/5/26 - 1740 52.8 39 28.3 42.2 SW | 232 8.2 19.0 SSW | 212
9/5/26 - 1735 52.8 38 28.1 42.1 SW | 215 8.3 23.9 WSW | 243
9/5/26 - 1730 52.5 39 28.4 42.1 SW | 224 9.7 22.0 WSW | 241
9/5/26 - 1725 52.5 39 28.3 42.0 SW | 229 8.5 20.7 S | 174
9/5/26 - 1720 52.9 39 28.8 42.4 SW | 232 7.5 17.5 WSW | 243
9/5/26 - 1715 52.9 39 28.7 42.4 SW | 233 7.4 18.9 WSW | 256
9/5/26 - 1710 53.1 38 28.5 42.4 SSW | 212 8.4 23.5 W | 267
9/5/26 - 1705 53.6 38 28.8 42.7 SW | 234 6.1 15.3 SSW | 211
9/5/26 - 1700 53.2 38 28.4 42.4 SW | 225 9.9 26.6 SSE | 165
9/5/26 - 1655 53.7 38 28.8 42.8 SW | 231 7.2 29.8 WSW | 243
9/5/26 - 1650 53.7 38 29.0 42.8 WSW | 242 7.0 17.8 SW | 233
9/5/26 - 1645 53.6 38 28.8 42.7 SW | 235 9.3 25.1 W | 265
9/5/26 - 1640 54.1 38 29.3 43.1 SW | 219 8.2 22.6 S | 191
9/5/26 - 1635 54.0 39 29.5 43.1 SW | 234 8.0 22.0 WSW | 242
9/5/26 - 1630 54.4 40 30.4 43.6 SW | 220 8.7 24.3 W | 281
9/5/26 - 1625 54.1 41 30.9 43.6 SW | 233 8.4 23.2 W | 262
9/5/26 - 1620 54.5 41 31.2 44.0 SW | 231 8.1 24.2 SW | 228
9/5/26 - 1615 55.0 41 32.0 44.5 SW | 225 8.1 18.4 SSW | 198
9/5/26 - 1610 55.7 40 32.0 44.8 SSW | 208 7.0 20.9 SSW | 201
9/5/26 - 1605 55.2 40 31.3 44.3 SSW | 209 8.1 19.0 SW | 226
9/5/26 - 1600 55.9 39 31.3 44.6 SW | 222 6.1 17.0 SSW | 198
9/5/26 - 1555 57.0 38 31.8 45.3 SSW | 205 4.9 13.7 WSW | 254
9/5/26 - 1550 56.2 38 31.1 44.7 SW | 229 6.4 23.5 SW | 230
9/5/26 - 1545 56.5 39 31.6 45.0 SSW | 208 7.2 26.3 SW | 230
9/5/26 - 1540 56.8 38 31.7 45.1 SSW | 212 7.0 17.4 W | 260
9/5/26 - 1535 57.0 39 32.0 45.4 S | 185 9.0 19.6 SSW | 197
9/5/26 - 1530 57.2 39 32.2 45.5 SSW | 200 8.9 27.8 S | 181
9/5/26 - 1525 57.2 39 32.3 45.6 S | 185 8.5 28.2 SSE | 147
9/5/26 - 1520 57.7 39 33.2 46.1 SSW | 192 6.3 13.4 SSE | 156
9/5/26 - 1515 57.5 40 33.2 46.0 SSW | 203 5.3 15.8 S | 185
9/5/26 - 1510 57.1 41 33.7 46.0 SW | 229 8.0 22.8 WSW | 238
9/5/26 - 1505 57.5 40 33.3 46.0 SSW | 206 6.5 25.8 SSE | 155
9/5/26 - 1500 57.4 39 32.5 45.7 SSW | 206 6.7 15.5 S | 173
9/5/26 - 1455 57.4 39 32.6 45.7 SW | 219 7.3 18.0 SW | 222
9/5/26 - 1450 57.7 39 33.1 46.0 SSW | 207 7.4 16.6 SSW | 192
9/5/26 - 1445 57.5 39 33.0 45.9 WSW | 246 4.6 14.3 W | 268
9/5/26 - 1440 58.2 39 33.7 46.5 SW | 227 4.4 16.7 W | 266
9/5/26 - 1435 57.5 40 33.3 46.0 SW | 221 6.4 18.0 ESE | 119
9/5/26 - 1430 58.3 40 34.3 46.7 SW | 216 5.6 14.4 WSW | 240
9/5/26 - 1425 57.7 41 34.4 46.5 WSW | 239 5.2 15.0 W | 259
9/5/26 - 1420 58.3 42 35.2 47.1 SW | 226 4.9 12.1 SW | 229
9/5/26 - 1415 58.4 42 35.7 47.3 SSW | 205 4.6 13.6 W | 266
9/5/26 - 1410 58.4 42 35.5 47.2 SW | 225 4.1 12.2 WSW | 251
9/5/26 - 1405 58.9 42 35.7 47.5 SSW | 203 5.3 15.3 SE | 141
9/5/26 - 1400 59.5 42 36.4 48.0 SW | 220 4.1 16.1 WNW | 290
9/5/26 - 1355 58.5 43 36.1 47.5 SW | 227 4.1 15.2 W | 263
9/5/26 - 1350 58.3 42 35.5 47.2 SSW | 205 6.1 16.8 SSW | 198
9/5/26 - 1345 58.9 43 36.6 47.9 SSW | 208 6.7 22.5 S | 170
9/5/26 - 1340 58.8 43 36.1 47.6 SSW | 193 6.4 21.5 ESE | 123
9/5/26 - 1335 58.5 43 35.9 47.5 SW | 220 4.6 15.0 SSW | 205
9/5/26 - 1330 58.2 42 35.3 47.1 SE | 146 4.2 16.2 SSW | 202
9/5/26 - 1325 59.2 42 36.2 47.8 S | 176 1.9 12.0 SSW | 193
9/5/26 - 1320 57.5 42 34.4 46.4 SW | 234 6.0 16.3 S | 174
9/5/26 - 1315 58.4 41 34.9 47.0 SW | 228 5.0 18.5 W | 266
9/5/26 - 1310 57.9 41 34.6 46.7 SSW | 193 4.3 17.4 SW | 214
9/5/26 - 1305 57.8 42 34.9 46.8 SW | 235 5.0 16.5 W | 264
9/5/26 - 1300 57.6 41 34.1 46.4 SSW | 192 3.6 12.2 SW | 233
9/5/26 - 1255 58.2 41 34.9 46.9 E | 79 3.7 16.8 SSE | 154
9/5/26 - 1250 58.3 42 35.2 47.1 W | 281 3.8 11.0 SW | 235
Max 59.5 47 36.6 48.0 - 12.6 36.6 -
Avg 52.5 42 30.1 42.6 - 7.3 18.4 -
Min 48.3 38 24.8 38.9 - 1.9 11.0 -